createdAt,value
2017-07-25T12:32:16.677Z,280
2017-07-25T12:33:18.993Z,292
2017-07-25T12:34:16.319Z,1928
2017-07-25T12:35:18.691Z,4668
2017-07-25T12:36:21.187Z,4912
2017-07-25T12:37:23.565Z,5156
2017-07-25T12:41:44.673Z,5840
2017-07-25T12:43:03.492Z,5936
2017-07-25T12:44:05.960Z,6028
2017-07-25T12:45:08.328Z,6232
2017-07-25T12:46:10.751Z,6504
2017-07-25T12:47:24.231Z,6716
2017-07-25T12:48:33.284Z,6644
2017-07-25T12:49:46.644Z,6308
2017-07-25T12:50:55.257Z,5988
2017-07-25T12:51:57.282Z,5668
2017-07-25T12:53:08.404Z,5400
2017-07-25T12:54:20.166Z,5256
2017-07-25T12:55:31.422Z,5188
2017-07-25T12:56:38.442Z,5180
2017-07-25T13:00:28.415Z,1752
2017-07-25T13:01:35.623Z,2428
2017-07-25T13:02:37.418Z,3252
2017-07-25T13:03:41.772Z,4048
2017-07-25T13:04:47.308Z,4456
2017-07-25T13:05:58.603Z,4444
2017-07-25T13:07:06.089Z,4196
2017-07-25T13:08:09.691Z,3924
2017-07-25T13:09:12.410Z,3560
2017-07-25T13:10:15.088Z,3480
2017-07-25T13:11:19.716Z,3604
2017-07-25T13:12:27.097Z,3560
2017-07-25T13:14:45.876Z,2988
2017-07-25T13:15:49.238Z,3184
2017-07-25T13:16:52.158Z,3440
2017-07-25T13:18:05.136Z,4028
2017-07-25T13:21:46.052Z,5356
2017-07-25T13:22:48.400Z,5500
2017-07-25T13:25:03.240Z,6024
2017-07-25T13:26:05.986Z,5836
2017-07-25T13:27:14.679Z,5520
2017-07-25T13:28:31.563Z,5296
2017-07-25T13:29:37.336Z,5004
2017-07-25T13:30:40.934Z,5072
2017-07-25T13:31:42.548Z,4772
2017-07-25T13:32:47.268Z,4808
2017-07-25T13:33:54.982Z,5180
2017-07-25T13:35:06.076Z,4988
2017-07-25T13:36:15.675Z,4572
2017-07-25T13:37:28.209Z,4272
2017-07-25T13:38:38.188Z,4220
2017-07-25T13:39:43.529Z,4288
2017-07-25T13:40:48.858Z,4200
2017-07-25T13:41:50.998Z,4064
2017-07-25T13:43:02.112Z,4120
2017-07-25T13:44:09.121Z,4252
2017-07-25T13:45:13.119Z,4236
2017-07-25T13:46:19.243Z,4148
2017-07-25T13:47:22.559Z,3980
2017-07-25T13:48:25.595Z,3980
2017-07-25T13:49:33.730Z,3572
2017-07-25T13:50:45.664Z,2736
2017-07-25T13:51:55.326Z,2664
2017-07-25T13:53:06.214Z,3948
2017-07-25T14:05:15.128Z,3484
2017-07-25T14:06:25.330Z,3100
2017-07-25T14:07:31.088Z,3156
2017-07-25T14:08:37.582Z,3164
2017-07-25T14:09:43.595Z,3020
2017-07-25T14:12:17.571Z,2860
2017-07-25T14:13:26.053Z,2800
2017-07-25T14:14:31.429Z,2736
2017-07-25T14:15:33.658Z,2484
2017-07-25T14:17:26.662Z,2336
